Time;durP1;ratioP1;P1;durP2;ratioP2;P2;SDS_P1;SDS_P2;PMS_P1;PMS_P2;Temp;Humidity;BMP_temperature;BMP_pressure;BME280_temperature;BME280_humidity;BME280_pressure;Samples;Min_cycle;Max_cycle;Signal;HPM_P1;HPM_P2
2022/08/27 00:01:15;;;;;;;11.27;4.15;;;14.20;99.90;;;;;;5015296;28;20044;-64
2022/08/27 00:03:43;;;;;;;7.95;3.55;;;14.30;99.90;;;;;;5015282;28;20523;-64
2022/08/27 00:06:11;;;;;;;5.63;3.05;;;14.20;99.90;;;;;;5015347;28;20045;-64
2022/08/27 00:08:37;;;;;;;4.32;2.60;;;14.30;99.90;;;;;;5032950;28;20049;-64
2022/08/27 00:11:02;;;;;;;6.07;3.00;;;14.30;99.90;;;;;;5015087;28;20041;-64
2022/08/27 00:13:28;;;;;;;5.13;3.30;;;14.30;99.90;;;;;;5015329;28;20124;-64
2022/08/27 00:15:53;;;;;;;6.88;3.53;;;14.30;99.90;;;;;;5015098;28;20084;-64
2022/08/27 00:18:19;;;;;;;4.90;4.10;;;14.30;99.90;;;;;;5015348;28;20034;-64
2022/08/27 00:20:45;;;;;;;7.47;3.92;;;14.40;99.90;;;;;;5032906;28;20528;-64
2022/08/27 00:23:11;;;;;;;5.32;3.70;;;14.00;99.90;;;;;;5015011;28;20046;-64
2022/08/27 00:25:37;;;;;;;6.78;3.85;;;14.10;99.90;;;;;;5015264;28;20048;-64
2022/08/27 00:28:03;;;;;;;7.93;3.70;;;14.40;99.90;;;;;;5014997;28;20518;-64
2022/08/27 00:30:29;;;;;;;6.90;4.00;;;14.00;99.90;;;;;;5014978;28;20072;-64
2022/08/27 00:32:55;;;;;;;9.20;3.83;;;14.00;99.90;;;;;;5015106;28;20045;-64
2022/08/27 00:35:21;;;;;;;5.68;3.63;;;14.00;99.90;;;;;;5032913;28;20046;-64
2022/08/27 00:37:47;;;;;;;5.47;3.42;;;13.80;99.90;;;;;;5032806;28;20037;-64
2022/08/27 00:40:17;;;;;;;4.28;3.47;;;13.70;99.90;;;;;;5032735;28;20030;-64
2022/08/27 00:42:44;;;;;;;6.40;3.30;;;13.80;99.90;;;;;;5032749;28;20052;-64
2022/08/27 00:45:12;;;;;;;5.50;2.92;;;14.00;99.90;;;;;;5014941;28;20510;-64
2022/08/27 00:47:44;;;;;;;6.10;3.50;;;13.90;99.90;;;;;;5014885;28;20037;-64
2022/08/27 00:50:13;;;;;;;5.85;3.38;;;13.80;99.90;;;;;;5014706;28;20416;-64
2022/08/27 00:52:56;;;;;;;6.35;3.83;;;13.80;99.90;;;;;;5035244;28;20045;-64
2022/08/27 00:55:26;;;;;;;5.85;2.80;;;13.80;99.90;;;;;;5018977;28;20053;-64
2022/08/27 00:58:31;;;;;;;3.50;2.40;;;13.50;99.90;;;;;;5036417;28;20167;-64
2022/08/27 01:00:58;;;;;;;2.92;2.50;;;13.60;99.90;;;;;;5034781;28;20050;-64
2022/08/27 01:03:25;;;;;;;4.35;2.83;;;13.50;99.90;;;;;;5018531;28;20060;-64
2022/08/27 01:05:55;;;;;;;7.03;3.47;;;13.70;99.90;;;;;;5035907;28;20041;-64
2022/08/27 01:08:27;;;;;;;4.43;3.10;;;13.60;99.90;;;;;;5018601;28;20463;-64
2022/08/27 01:10:56;;;;;;;6.43;3.67;;;13.40;99.90;;;;;;5016976;28;20512;-64
2022/08/27 01:13:24;;;;;;;4.90;3.05;;;13.40;99.90;;;;;;5018384;28;20048;-64
2022/08/27 01:15:52;;;;;;;4.68;3.70;;;13.50;99.90;;;;;;5018649;28;20041;-64
2022/08/27 01:18:18;;;;;;;5.13;2.63;;;13.10;99.90;;;;;;5035974;28;20037;-64
2022/08/27 01:20:49;;;;;;;6.25;3.38;;;13.20;99.90;;;;;;5035832;28;20041;-64
2022/08/27 01:23:26;;;;;;;7.63;3.97;;;13.00;99.90;;;;;;5018626;28;20037;-64
2022/08/27 01:25:52;;;;;;;5.95;3.58;;;13.30;99.90;;;;;;5036163;28;20041;-64
2022/08/27 01:28:20;;;;;;;5.75;3.88;;;13.10;99.90;;;;;;5035939;28;20455;-64
2022/08/27 01:30:46;;;;;;;5.50;3.88;;;13.40;99.90;;;;;;5018144;28;20069;-64
2022/08/27 01:33:15;;;;;;;6.90;3.70;;;13.30;99.90;;;;;;5035838;28;20072;-64
2022/08/27 01:35:49;;;;;;;5.28;3.75;;;13.20;99.90;;;;;;5001668;28;20073;-64
2022/08/27 01:38:16;;;;;;;7.22;3.38;;;13.10;99.90;;;;;;5018371;28;20102;-64
2022/08/27 01:40:42;;;;;;;6.88;3.70;;;12.90;99.90;;;;;;5035692;28;20041;-64
2022/08/27 01:43:07;;;;;;;5.68;3.30;;;12.90;99.90;;;;;;5035781;28;20034;-64
2022/08/27 01:45:37;;;;;;;5.60;3.60;;;13.00;99.90;;;;;;5035524;28;20044;-64
2022/08/27 01:48:03;;;;;;;8.52;4.68;;;13.00;99.90;;;;;;5018010;28;20114;-64
2022/08/27 01:50:34;;;;;;;4.68;3.63;;;13.00;99.90;;;;;;5035547;28;20052;-64
2022/08/27 01:53:14;;;;;;;5.65;3.90;;;12.80;99.90;;;;;;5001376;28;20052;-64
2022/08/27 01:55:41;;;;;;;6.43;4.13;;;12.80;99.90;;;;;;5035648;28;20033;-64
2022/08/27 01:58:07;;;;;;;5.20;4.03;;;12.90;99.90;;;;;;5035491;28;20041;-64
2022/08/27 02:00:37;;;;;;;5.65;4.40;;;13.00;99.90;;;;;;5017600;28;20076;-64
2022/08/27 02:03:04;;;;;;;5.22;3.65;;;12.90;99.90;;;;;;5034416;28;20041;-65
2022/08/27 02:05:30;;;;;;;5.45;4.75;;;12.80;99.90;;;;;;5017378;28;20057;-64
2022/08/27 02:07:56;;;;;;;6.65;4.85;;;12.90;99.90;;;;;;5035430;28;20041;-64
2022/08/27 02:10:29;;;;;;;10.00;4.88;;;12.90;99.90;;;;;;5034894;28;20438;-64
2022/08/27 02:12:54;;;;;;;4.63;3.40;;;12.80;99.90;;;;;;5035404;28;20088;-64
2022/08/27 02:15:21;;;;;;;5.88;3.65;;;12.60;99.90;;;;;;5035148;28;20484;-64
2022/08/27 02:17:46;;;;;;;4.32;3.40;;;12.70;99.90;;;;;;5035167;28;20037;-64
2022/08/27 02:20:13;;;;;;;4.47;3.63;;;12.80;99.90;;;;;;5017091;28;20513;-64
2022/08/27 02:22:39;;;;;;;5.57;3.53;;;12.80;99.90;;;;;;5034954;28;20042;-64
2022/08/27 02:25:06;;;;;;;3.90;3.42;;;12.90;99.90;;;;;;5034927;28;20073;-64
2022/08/27 02:27:32;;;;;;;6.00;4.22;;;12.70;99.90;;;;;;5034871;28;20519;-64
2022/08/27 02:29:57;;;;;;;6.95;4.47;;;12.90;99.90;;;;;;5034787;28;20140;-64
2022/08/27 02:32:23;;;;;;;8.95;4.70;;;12.80;99.90;;;;;;5034799;28;20136;-64
2022/08/27 02:34:49;;;;;;;5.63;4.63;;;12.80;99.90;;;;;;5017109;28;20042;-64
2022/08/27 02:37:14;;;;;;;6.10;5.43;;;12.70;99.90;;;;;;5016817;28;20037;-62
2022/08/27 02:39:41;;;;;;;6.47;5.60;;;12.80;99.90;;;;;;5034680;28;20041;-64
2022/08/27 02:42:07;;;;;;;7.28;4.45;;;12.80;99.90;;;;;;5034439;28;20172;-63
2022/08/27 02:44:34;;;;;;;5.57;4.22;;;12.90;99.90;;;;;;5034426;28;20112;-64
2022/08/27 02:47:01;;;;;;;6.07;4.78;;;13.00;99.90;;;;;;5016571;28;20053;-64
2022/08/27 02:49:27;;;;;;;6.35;4.30;;;12.70;99.90;;;;;;5016621;28;20045;-64
2022/08/27 02:51:55;;;;;;;5.88;4.43;;;12.80;99.90;;;;;;5034272;28;20050;-64
2022/08/27 02:54:22;;;;;;;5.30;4.18;;;12.70;99.90;;;;;;5016629;28;20045;-64
2022/08/27 02:56:48;;;;;;;4.97;3.70;;;12.70;99.90;;;;;;5016746;28;20034;-63
2022/08/27 02:59:13;;;;;;;4.97;4.03;;;12.80;99.90;;;;;;5034141;28;20148;-64
2022/08/27 03:01:39;;;;;;;6.75;4.20;;;12.70;99.90;;;;;;5016401;28;20380;-64
2022/08/27 03:04:05;;;;;;;5.88;4.72;;;12.70;99.90;;;;;;5033985;28;20491;-64
2022/08/27 03:06:30;;;;;;;5.25;3.83;;;12.70;99.90;;;;;;5016268;28;20132;-64
2022/08/27 03:08:56;;;;;;;8.52;4.53;;;12.60;99.90;;;;;;5034111;28;20038;-64
2022/08/27 03:11:22;;;;;;;4.65;3.65;;;12.60;99.90;;;;;;5033603;28;20444;-63
2022/08/27 03:13:49;;;;;;;6.35;3.67;;;12.50;99.90;;;;;;5016474;28;20491;-64
2022/08/27 03:16:14;;;;;;;7.03;3.80;;;12.50;99.90;;;;;;5016072;28;20050;-64
2022/08/27 03:18:40;;;;;;;5.55;3.30;;;12.40;99.90;;;;;;5033844;28;20038;-64
2022/08/27 03:21:07;;;;;;;8.63;3.92;;;12.40;99.90;;;;;;5016021;28;20052;-64
2022/08/27 03:23:33;;;;;;;4.38;3.17;;;12.50;99.90;;;;;;5016100;28;20089;-64
2022/08/27 03:26:02;;;;;;;5.05;4.20;;;12.60;99.90;;;;;;5015996;28;20056;-64
2022/08/27 03:28:31;;;;;;;5.22;3.80;;;12.20;99.90;;;;;;5033611;28;20487;-64
2022/08/27 03:31:01;;;;;;;5.00;3.80;;;12.40;99.90;;;;;;5015911;28;20122;-63
2022/08/27 03:33:45;;;;;;;6.03;4.85;;;;;;;;;;5033810;28;20073;-64
2022/08/27 03:36:11;;;;;;;6.03;4.33;;;12.30;99.90;;;;;;5015803;28;20041;-64
2022/08/27 03:38:36;;;;;;;5.57;4.07;;;12.30;99.90;;;;;;5033478;28;20418;-63
2022/08/27 03:41:03;;;;;;;7.57;4.88;;;12.30;99.90;;;;;;5015577;28;20048;-64
2022/08/27 03:43:28;;;;;;;11.23;6.00;;;12.20;99.90;;;;;;5034083;28;20411;-64
2022/08/27 03:45:54;;;;;;;8.23;5.55;;;12.50;99.90;;;;;;5033329;28;20085;-64
2022/08/27 03:48:20;;;;;;;7.22;5.07;;;12.30;99.90;;;;;;5033450;28;20033;-64
2022/08/27 03:50:48;;;;;;;7.82;6.20;;;12.30;99.90;;;;;;5033222;28;20041;-64
2022/08/27 03:53:15;;;;;;;7.53;4.85;;;12.30;99.90;;;;;;5033161;28;20037;-63
2022/08/27 03:55:41;;;;;;;8.85;6.55;;;12.30;99.90;;;;;;5015506;28;20095;-64
2022/08/27 03:58:08;;;;;;;10.80;5.68;;;12.30;99.90;;;;;;5033253;28;20471;-64
2022/08/27 04:00:33;;;;;;;7.45;5.45;;;12.50;99.90;;;;;;5032440;28;20036;-63
2022/08/27 04:02:59;;;;;;;7.22;5.40;;;12.40;99.90;;;;;;5011688;28;20041;-64
2022/08/27 04:05:24;;;;;;;8.55;4.75;;;12.50;99.90;;;;;;5015334;28;20526;-64
2022/08/27 04:07:50;;;;;;;10.65;4.53;;;12.50;99.90;;;;;;5032954;28;20404;-63
2022/08/27 04:10:16;;;;;;;7.18;5.25;;;12.50;99.90;;;;;;5032726;28;20461;-64
2022/08/27 04:12:42;;;;;;;8.25;4.60;;;12.40;99.90;;;;;;5032767;28;20565;-64
2022/08/27 04:15:10;;;;;;;5.57;4.20;;;12.20;99.90;;;;;;5032993;28;20064;-64
2022/08/27 04:17:36;;;;;;;5.28;3.40;;;12.60;99.90;;;;;;5015308;28;20108;-63
2022/08/27 04:20:03;;;;;;;6.88;4.65;;;12.50;99.90;;;;;;5015152;28;20516;-64
2022/08/27 04:22:29;;;;;;;5.85;5.00;;;;;;;;;;5032618;28;20134;-64
2022/08/27 04:24:55;;;;;;;6.20;5.60;;;12.50;99.90;;;;;;5033101;28;20069;-64
2022/08/27 04:27:21;;;;;;;6.57;5.05;;;12.30;99.90;;;;;;5014386;28;20443;-64
2022/08/27 04:29:47;;;;;;;6.78;5.47;;;12.50;99.90;;;;;;5015224;28;20045;-64
2022/08/27 04:32:13;;;;;;;6.90;4.50;;;12.30;99.90;;;;;;5032526;28;20594;-63
2022/08/27 04:34:39;;;;;;;5.38;3.92;;;12.30;99.90;;;;;;5032983;28;20037;-64
2022/08/27 04:37:06;;;;;;;5.78;4.65;;;12.20;99.90;;;;;;5032733;28;20121;-63
2022/08/27 04:39:31;;;;;;;6.80;4.75;;;12.20;99.90;;;;;;5032641;28;20470;-63
2022/08/27 04:42:00;;;;;;;7.85;5.57;;;12.20;99.90;;;;;;5032785;28;20073;-63
2022/08/27 04:44:29;;;;;;;9.50;5.88;;;12.20;99.90;;;;;;5032613;28;20037;-64
2022/08/27 04:46:58;;;;;;;8.90;6.10;;;12.20;99.90;;;;;;5032918;28;20087;-64
2022/08/27 04:49:25;;;;;;;7.55;5.35;;;12.30;99.90;;;;;;5032557;28;20048;-64
2022/08/27 04:51:51;;;;;;;11.55;5.55;;;12.30;99.90;;;;;;5032379;28;20045;-64
2022/08/27 04:54:16;;;;;;;6.57;5.70;;;12.30;99.90;;;;;;5032701;28;20226;-64
2022/08/27 04:56:43;;;;;;;8.13;5.72;;;12.30;99.90;;;;;;5032790;28;20116;-64
2022/08/27 04:59:09;;;;;;;8.60;6.45;;;12.30;99.90;;;;;;5014903;28;20045;-64
2022/08/27 05:01:37;;;;;;;7.95;5.85;;;12.60;99.90;;;;;;5032462;28;20042;-64
2022/08/27 05:04:03;;;;;;;8.40;5.57;;;12.40;99.90;;;;;;5014593;28;20061;-64
2022/08/27 05:06:29;;;;;;;8.45;5.82;;;12.60;99.90;;;;;;5014631;28;20057;-63
2022/08/27 05:08:55;;;;;;;11.20;6.60;;;12.50;99.90;;;;;;5032406;28;20052;-64
2022/08/27 05:11:22;;;;;;;10.05;5.95;;;12.40;99.90;;;;;;5014718;28;20129;-63
2022/08/27 05:13:49;;;;;;;10.85;6.28;;;12.60;99.90;;;;;;5032865;28;20079;-64
2022/08/27 05:16:20;;;;;;;8.75;5.78;;;12.60;99.90;;;;;;5014763;28;20045;-64
2022/08/27 05:18:48;;;;;;;8.57;6.28;;;12.60;99.90;;;;;;5018449;28;20073;-63
2022/08/27 05:21:30;;;;;;;7.13;5.82;;;12.70;99.90;;;;;;5014741;28;20099;-63
2022/08/27 05:23:58;;;;;;;5.35;4.50;;;12.60;99.90;;;;;;5032469;28;20392;-63
2022/08/27 05:26:24;;;;;;;6.32;5.40;;;12.50;99.90;;;;;;5014760;28;20045;-63
2022/08/27 05:28:50;;;;;;;6.25;5.38;;;12.60;99.90;;;;;;5032285;28;20048;-63
2022/08/27 05:31:18;;;;;;;6.75;4.82;;;12.60;99.90;;;;;;5014292;28;20042;-63
2022/08/27 05:33:45;;;;;;;8.35;5.78;;;12.70;99.90;;;;;;5014511;28;20483;-64
2022/08/27 05:36:25;;;;;;;8.88;6.60;;;12.80;99.90;;;;;;5032308;28;20049;-64
2022/08/27 05:38:52;;;;;;;10.35;5.78;;;12.90;99.90;;;;;;5033414;28;20553;-64
2022/08/27 05:41:26;;;;;;;9.10;6.50;;;13.00;99.90;;;;;;5017866;28;20083;-64
2022/08/27 05:43:53;;;;;;;10.35;6.57;;;13.00;99.90;;;;;;5018032;28;20045;-63
2022/08/27 05:46:22;;;;;;;8.77;6.38;;;13.10;99.90;;;;;;5035420;28;20037;-64
2022/08/27 05:48:49;;;;;;;9.32;6.00;;;13.20;99.90;;;;;;5017850;28;20046;-64
2022/08/27 05:51:24;;;;;;;8.65;6.63;;;13.20;99.90;;;;;;5035631;28;20087;-64
2022/08/27 05:53:49;;;;;;;;;;;13.20;99.90;;;;;;5036005;28;20065;-64
2022/08/27 05:56:19;;;;;;;8.02;6.88;;;13.40;99.90;;;;;;5017728;28;19959;-63
2022/08/27 06:01:33;;;;;;;10.13;7.45;;;13.60;99.90;;;;;;5017438;28;20049;-64
2022/08/27 06:03:59;;;;;;;10.65;7.78;;;13.70;99.90;;;;;;5035147;28;20053;-64
2022/08/27 06:06:24;;;;;;;9.05;7.22;;;13.70;99.90;;;;;;5017094;28;20103;-64
2022/08/27 06:08:52;;;;;;;8.95;6.45;;;13.80;99.90;;;;;;5017537;28;20033;-64
2022/08/27 06:11:18;;;;;;;11.40;7.13;;;13.90;99.90;;;;;;5034730;28;20041;-63
2022/08/27 06:13:45;;;;;;;11.95;7.07;;;13.90;99.90;;;;;;5031326;28;20179;-63
2022/08/27 06:16:14;;;;;;;11.05;6.40;;;13.90;99.90;;;;;;5033769;28;20038;-65
2022/08/27 06:18:42;;;;;;;9.90;6.55;;;14.10;99.90;;;;;;5033613;28;20124;-64
2022/08/27 06:21:08;;;;;;;13.85;7.10;;;14.10;99.90;;;;;;5034474;28;20044;-65
2022/08/27 06:23:35;;;;;;;13.57;6.65;;;14.20;99.90;;;;;;5016415;28;20108;-65
2022/08/27 06:26:04;;;;;;;9.10;6.18;;;14.40;99.90;;;;;;5016003;28;20116;-63
2022/08/27 06:28:30;;;;;;;7.38;5.60;;;14.50;99.90;;;;;;5032749;28;20037;-64
2022/08/27 06:31:06;;;;;;;10.30;6.20;;;14.50;99.90;;;;;;5014081;28;20046;-64
2022/08/27 06:33:32;;;;;;;7.97;5.95;;;14.60;99.90;;;;;;5016562;28;20076;-64
2022/08/27 06:35:59;;;;;;;6.90;5.47;;;14.70;99.90;;;;;;5034124;28;20091;-64
2022/08/27 06:38:25;;;;;;;10.93;6.10;;;14.80;99.90;;;;;;5016754;28;20048;-63
2022/08/27 06:40:51;;;;;;;8.40;6.22;;;14.80;99.90;;;;;;5034167;28;20045;-64
2022/08/27 06:43:16;;;;;;;7.13;5.70;;;15.10;99.90;;;;;;5034602;28;20041;-63
2022/08/27 06:45:42;;;;;;;9.25;5.07;;;15.10;99.90;;;;;;5016383;28;20530;-64
2022/08/27 06:48:07;;;;;;;12.52;5.53;;;15.40;99.90;;;;;;5033911;28;20442;-64
2022/08/27 06:50:41;;;;;;;6.47;5.68;;;15.60;99.90;;;;;;5033560;28;20408;-64
2022/08/27 06:53:07;;;;;;;10.98;6.25;;;15.80;99.90;;;;;;5032920;28;20475;-64
2022/08/27 06:55:43;;;;;;;9.38;5.53;;;15.80;99.90;;;;;;5016510;28;20106;-64
2022/08/27 06:58:10;;;;;;;7.90;5.30;;;15.80;99.90;;;;;;5032274;28;20030;-64
2022/08/27 07:00:36;;;;;;;6.18;3.85;;;16.20;99.90;;;;;;5032633;28;20071;-64
2022/08/27 07:03:04;;;;;;;8.70;3.83;;;16.40;99.90;;;;;;5016191;28;20143;-65
2022/08/27 07:05:31;;;;;;;11.00;3.65;;;16.40;99.90;;;;;;5016166;28;20553;-64
2022/08/27 07:07:57;;;;;;;8.73;4.18;;;16.60;99.90;;;;;;5033600;28;20041;-64
2022/08/27 07:10:23;;;;;;;7.40;3.50;;;16.80;99.90;;;;;;5022476;28;20044;-64
2022/08/27 07:12:49;;;;;;;5.60;3.17;;;16.70;99.90;;;;;;5034118;28;20224;-64
2022/08/27 07:15:15;;;;;;;5.07;2.83;;;16.80;99.90;;;;;;5033860;28;20120;-64
2022/08/27 07:17:43;;;;;;;6.72;3.22;;;17.10;99.90;;;;;;5015777;28;20046;-64
2022/08/27 07:20:10;;;;;;;5.90;3.55;;;17.00;99.90;;;;;;5033433;28;20120;-63
2022/08/27 07:22:39;;;;;;;6.07;2.85;;;17.00;99.90;;;;;;5033700;28;20046;-64
2022/08/27 07:25:05;;;;;;;4.97;2.38;;;17.10;99.90;;;;;;5034206;28;20095;-65
2022/08/27 07:27:31;;;;;;;6.63;3.67;;;17.30;99.90;;;;;;5015165;28;20045;-64
2022/08/27 07:29:58;;;;;;;5.00;2.05;;;17.20;99.90;;;;;;5032685;28;20033;-64
2022/08/27 07:32:24;;;;;;;7.43;2.47;;;17.30;99.90;;;;;;5032901;28;20084;-64
2022/08/27 07:34:49;;;;;;;7.72;2.30;;;17.50;99.90;;;;;;5033643;28;20033;-64
2022/08/27 07:37:15;;;;;;;9.73;2.47;;;17.60;99.90;;;;;;5014945;28;20502;-64
2022/08/27 07:39:41;;;;;;;6.57;2.08;;;17.60;99.90;;;;;;5021967;28;20704;-64
2022/08/27 07:44:50;;;;;;;6.60;2.45;;;17.90;99.90;;;;;;5030511;28;20073;-64
2022/08/27 07:47:16;;;;;;;5.63;2.05;;;17.70;99.90;;;;;;5033362;28;20060;-64
2022/08/27 07:49:42;;;;;;;4.32;1.67;;;17.50;99.90;;;;;;5033018;28;20473;-64
2022/08/27 07:52:08;;;;;;;6.55;1.88;;;17.80;99.90;;;;;;5015470;28;20112;-64
2022/08/27 07:54:34;;;;;;;8.98;2.08;;;17.60;99.90;;;;;;5033403;28;20037;-64
2022/08/27 07:56:59;;;;;;;4.90;1.80;;;17.90;99.90;;;;;;5033114;28;20037;-64
2022/08/27 07:59:26;;;;;;;8.45;2.15;;;17.80;99.90;;;;;;5033312;28;20046;-64
2022/08/27 08:01:52;;;;;;;8.15;2.10;;;18.10;99.90;;;;;;5014528;28;20045;-65
2022/08/27 08:04:18;;;;;;;7.68;2.03;;;18.00;99.90;;;;;;5032903;28;20156;-64
2022/08/27 08:06:43;;;;;;;7.57;1.85;;;18.30;99.90;;;;;;5033232;28;20499;-64
2022/08/27 08:09:09;;;;;;;11.02;2.10;;;18.00;99.90;;;;;;5015407;28;20108;-64
2022/08/27 08:11:35;;;;;;;7.68;1.73;;;17.90;99.90;;;;;;5033094;28;20092;-64
2022/08/27 08:14:00;;;;;;;6.15;2.10;;;18.10;99.90;;;;;;5015399;28;20416;-64
2022/08/27 08:16:27;;;;;;;6.82;1.73;;;18.00;99.90;;;;;;5032849;28;20033;-64
2022/08/27 08:18:53;;;;;;;10.68;1.95;;;18.10;99.90;;;;;;5032693;28;20478;-64
2022/08/27 08:21:18;;;;;;;6.60;1.40;;;18.40;99.90;;;;;;5032949;28;20045;-64
2022/08/27 08:23:44;;;;;;;10.50;1.65;;;18.10;99.90;;;;;;5033116;28;20442;-64
2022/08/27 08:26:11;;;;;;;5.03;1.70;;;18.40;99.90;;;;;;5033079;28;20471;-64
2022/08/27 08:28:38;;;;;;;10.40;1.67;;;18.50;99.90;;;;;;5032883;28;20112;-64
2022/08/27 08:31:04;;;;;;;8.35;1.90;;;18.70;99.90;;;;;;5032574;28;20124;-64
2022/08/27 08:33:30;;;;;;;6.85;1.73;;;18.70;99.90;;;;;;5032860;28;20044;-64
2022/08/27 08:36:09;;;;;;;7.53;1.40;;;18.80;99.90;;;;;;5032671;28;20033;-64
2022/08/27 08:38:36;;;;;;;9.55;1.95;;;19.20;99.90;;;;;;5032907;28;20047;-64
2022/08/27 08:41:04;;;;;;;8.23;1.60;;;18.90;99.90;;;;;;5014952;28;20500;-64
2022/08/27 08:43:41;;;;;;;6.13;2.10;;;20.30;99.90;;;;;;5032732;28;20076;-64
2022/08/27 08:46:22;;;;;;;6.55;1.95;;;19.20;99.90;;;;;;5014915;28;20038;-64
2022/08/27 08:48:54;;;;;;;8.57;1.50;;;19.00;99.90;;;;;;5032748;28;20050;-64
2022/08/27 08:51:28;;;;;;;19.05;1.88;;;19.00;99.90;;;;;;5014691;28;20048;-64
2022/08/27 08:54:02;;;;;;;6.05;1.45;;;19.00;99.90;;;;;;5032955;28;20072;-64
2022/08/27 08:56:39;;;;;;;5.07;1.45;;;19.00;99.90;;;;;;5014899;28;20041;-64
2022/08/27 08:59:13;;;;;;;7.57;1.65;;;19.10;99.90;;;;;;5015244;28;20037;-64
2022/08/27 09:01:39;;;;;;;7.43;1.98;;;18.90;99.90;;;;;;5014841;28;20411;-64
2022/08/27 09:04:10;;;;;;;7.68;1.33;;;18.90;99.90;;;;;;5032421;28;20053;-64
2022/08/27 09:06:52;;;;;;;7.50;1.63;;;19.20;99.90;;;;;;5032546;28;20037;-64
2022/08/27 09:09:20;;;;;;;6.80;1.15;;;19.20;99.90;;;;;;5032806;28;20116;-64
2022/08/27 09:11:58;;;;;;;8.90;0.70;;;18.90;99.90;;;;;;5032389;28;20407;-64
2022/08/27 09:14:51;;;;;;;10.73;1.40;;;18.80;99.90;;;;;;5018726;28;20104;-65
2022/08/27 09:17:17;;;;;;;5.80;1.00;;;19.00;99.90;;;;;;5024201;28;20041;-64
2022/08/27 09:19:43;;;;;;;7.82;1.10;;;19.20;99.90;;;;;;5002041;28;20041;-64
2022/08/27 09:22:27;;;;;;;6.50;0.88;;;19.20;99.90;;;;;;5036066;28;20044;-64
2022/08/27 09:25:21;;;;;;;3.42;0.93;;;19.30;99.90;;;;;;5036106;28;20523;-64
2022/08/27 09:27:49;;;;;;;4.80;0.90;;;18.80;99.90;;;;;;5004593;28;20557;-64
2022/08/27 09:30:21;;;;;;;7.20;1.08;;;19.10;99.90;;;;;;5035963;28;20044;-64
2022/08/27 09:32:56;;;;;;;3.80;0.80;;;19.20;99.90;;;;;;5035987;28;20060;-64
2022/08/27 09:35:25;;;;;;;4.47;0.98;;;19.20;99.90;;;;;;5036161;28;20049;-64
2022/08/27 09:37:53;;;;;;;3.38;1.10;;;19.20;99.90;;;;;;5036020;28;20116;-64
2022/08/27 09:40:26;;;;;;;7.03;1.10;;;19.10;99.90;;;;;;5035792;28;20067;-64
2022/08/27 09:43:15;;;;;;;5.13;1.17;;;19.10;99.90;;;;;;5035939;28;20183;-64
2022/08/27 09:45:50;;;;;;;5.13;1.45;;;19.30;99.90;;;;;;5009412;28;20128;-64
2022/08/27 09:48:20;;;;;;;;;;;19.30;99.90;;;;;;5022943;28;20034;-64
2022/08/27 09:50:53;;;;;;;4.40;0.90;;;19.20;99.90;;;;;;5017575;28;19917;-64
2022/08/27 09:53:34;;;;;;;5.97;1.25;;;19.40;99.90;;;;;;5035719;28;20055;-64
2022/08/27 09:56:02;;;;;;;7.43;1.25;;;19.40;99.90;;;;;;5017797;28;20041;-64
2022/08/27 09:58:33;;;;;;;6.40;0.80;;;19.30;99.90;;;;;;5035709;28;20038;-64
2022/08/27 10:01:05;;;;;;;7.30;0.82;;;19.80;99.90;;;;;;5035516;28;20038;-64
2022/08/27 10:03:32;;;;;;;5.50;1.15;;;19.70;99.90;;;;;;5004186;28;20093;-65
2022/08/27 10:05:58;;;;;;;5.35;1.10;;;20.20;99.90;;;;;;5017582;28;20048;-64
2022/08/27 10:08:35;;;;;;;5.68;1.05;;;20.20;99.90;;;;;;5017491;28;20411;-64
2022/08/27 10:11:15;;;;;;;7.97;0.73;;;20.20;99.90;;;;;;5017325;28;20046;-64
2022/08/27 10:14:25;;;;;;;9.75;1.25;;;19.90;99.90;;;;;;4997994;28;20050;-64
2022/08/27 10:17:15;;;;;;;4.60;0.85;;;19.80;99.90;;;;;;5013095;28;20427;-64
2022/08/27 10:19:59;;;;;;;2.83;1.02;;;19.80;99.90;;;;;;5017210;28;20091;-64
2022/08/27 10:22:51;;;;;;;7.00;0.95;;;19.80;99.90;;;;;;5034981;28;20080;-65
2022/08/27 10:25:24;;;;;;;7.45;1.20;;;19.70;99.90;;;;;;5016421;28;20455;-64
2022/08/27 10:27:55;;;;;;;4.22;1.30;;;19.40;99.90;;;;;;5021648;28;20037;-64
2022/08/27 10:30:52;;;;;;;7.13;1.08;;;19.70;99.90;;;;;;5034826;28;20042;-65
2022/08/27 10:33:43;;;;;;;7.30;1.60;;;19.50;99.90;;;;;;4978719;28;20105;-65
2022/08/27 10:36:17;;;;;;;4.10;1.10;;;19.40;99.90;;;;;;5033927;28;20033;-64
2022/08/27 10:38:54;;;;;;;8.97;0.90;;;19.80;99.90;;;;;;5017057;28;20049;-64
2022/08/27 10:41:28;;;;;;;7.75;0.90;;;19.80;99.90;;;;;;5017055;28;20403;-64
2022/08/27 10:44:28;;;;;;;8.05;1.35;;;19.80;99.90;;;;;;5034865;28;20045;-64
2022/08/27 10:47:12;;;;;;;8.90;0.98;;;19.80;99.90;;;;;;5024290;28;20041;-64
2022/08/27 10:49:59;;;;;;;6.68;1.02;;;19.90;99.90;;;;;;5016745;28;20077;-64
2022/08/27 10:52:31;;;;;;;6.68;0.90;;;20.10;99.90;;;;;;5016606;28;20053;-64
2022/08/27 10:55:09;;;;;;;4.18;1.00;;;20.20;99.90;;;;;;5034606;28;20048;-64
2022/08/27 10:57:55;;;;;;;8.15;1.10;;;20.10;99.90;;;;;;5034445;28;20360;-64
2022/08/27 11:00:23;;;;;;;8.23;1.30;;;20.00;99.90;;;;;;5004979;28;20040;-64
2022/08/27 11:03:05;;;;;;;6.18;0.90;;;20.00;99.90;;;;;;5034314;28;20446;-64
2022/08/27 11:05:39;;;;;;;5.85;0.88;;;20.00;99.90;;;;;;5034380;28;20081;-64
2022/08/27 11:08:26;;;;;;;5.72;1.02;;;20.00;99.90;;;;;;5034139;28;20041;-64
2022/08/27 11:11:04;;;;;;;4.60;1.05;;;20.00;99.90;;;;;;5034256;28;20053;-64
2022/08/27 11:13:40;;;;;;;6.82;0.85;;;20.00;99.90;;;;;;5016290;28;20045;-64
2022/08/27 11:16:15;;;;;;;7.55;1.10;;;20.00;99.90;;;;;;5034078;28;20439;-64
2022/08/27 11:18:47;;;;;;;5.20;1.02;;;20.10;99.90;;;;;;5033715;28;20373;-64
2022/08/27 11:21:13;;;;;;;7.00;1.00;;;19.80;99.90;;;;;;5033765;28;20051;-64
2022/08/27 11:23:44;;;;;;;3.80;0.88;;;19.80;99.90;;;;;;5016134;28;20120;-63
2022/08/27 11:26:11;;;;;;;9.98;1.00;;;19.90;99.90;;;;;;5032153;28;20037;-64
2022/08/27 11:28:41;;;;;;;6.78;1.27;;;19.90;99.90;;;;;;5033814;28;20033;-64
2022/08/27 11:31:30;;;;;;;6.95;0.65;;;20.20;99.90;;;;;;5033565;28;20053;-64
2022/08/27 11:34:35;;;;;;;4.75;0.60;;;20.20;99.90;;;;;;5033796;28;20045;-64
2022/08/27 11:37:16;;;;;;;5.63;0.65;;;20.20;99.90;;;;;;5033352;28;20042;-65
2022/08/27 11:39:47;;;;;;;6.20;1.35;;;20.10;99.90;;;;;;5032196;28;20041;-65
2022/08/27 11:42:26;;;;;;;6.53;0.75;;;20.10;99.90;;;;;;5015232;28;20080;-64
2022/08/27 11:44:57;;;;;;;6.30;0.88;;;20.00;99.90;;;;;;5011090;28;20404;-64
2022/08/27 11:47:25;;;;;;;6.05;0.70;;;20.20;99.90;;;;;;5015169;28;20060;-65
2022/08/27 11:49:56;;;;;;;4.72;0.90;;;20.10;99.90;;;;;;5012278;28;20037;-65
2022/08/27 11:52:54;;;;;;;8.82;0.98;;;19.80;99.90;;;;;;5012457;28;20058;-65
2022/08/27 11:55:19;;;;;;;5.88;0.93;;;19.80;99.90;;;;;;4992214;28;20077;-65
2022/08/27 11:58:00;;;;;;;8.48;0.70;;;20.00;99.90;;;;;;5029672;28;20130;-65
2022/08/27 12:00:26;;;;;;;4.18;0.80;;;20.10;99.90;;;;;;5014690;28;20045;-64
2022/08/27 12:03:18;;;;;;;5.35;1.08;;;20.30;99.90;;;;;;5031630;28;20049;-64
2022/08/27 12:05:43;;;;;;;5.45;1.13;;;20.30;99.90;;;;;;5008540;28;20495;-65
2022/08/27 12:08:20;;;;;;;6.10;0.80;;;20.40;99.90;;;;;;5028552;28;20090;-65
2022/08/27 12:10:52;;;;;;;14.38;1.15;;;20.30;99.90;;;;;;5013256;28;20058;-65
2022/08/27 12:13:26;;;;;;;6.13;0.55;;;20.40;99.90;;;;;;5013039;28;20128;-64
2022/08/27 12:15:58;;;;;;;;;;;20.50;99.90;;;;;;5014757;28;20045;-64
2022/08/27 12:18:42;;;;;;;2.28;0.63;;;20.50;99.90;;;;;;5014581;28;19917;-64
2022/08/27 12:21:29;;;;;;;6.20;0.90;;;20.30;99.90;;;;;;5029336;28;20045;-64
2022/08/27 12:24:09;;;;;;;4.63;0.80;;;20.50;99.90;;;;;;5027398;28;20045;-64
2022/08/27 12:26:38;;;;;;;4.65;0.80;;;20.50;99.90;;;;;;5032216;28;20539;-63
2022/08/27 12:29:27;;;;;;;5.70;0.68;;;20.50;99.90;;;;;;5032604;28;20095;-63
2022/08/27 12:32:23;;;;;;;7.25;0.80;;;20.40;99.90;;;;;;5029508;28;20385;-64
2022/08/27 12:34:57;;;;;;;5.53;0.73;;;20.30;99.90;;;;;;5018298;28;20053;-64
2022/08/27 12:37:26;;;;;;;5.45;0.63;;;20.60;99.90;;;;;;5014393;28;20045;-65
2022/08/27 12:39:55;;;;;;;3.97;0.85;;;20.60;99.90;;;;;;5032176;28;20469;-64
2022/08/27 12:42:21;;;;;;;6.03;0.50;;;20.70;99.90;;;;;;5014172;28;20124;-64
2022/08/27 12:44:53;;;;;;;3.90;0.70;;;20.80;99.90;;;;;;5032415;28;20552;-64
2022/08/27 12:47:18;;;;;;;9.40;0.70;;;20.80;99.90;;;;;;5033212;28;20076;-64
2022/08/27 12:49:56;;;;;;;5.50;1.20;;;20.80;99.90;;;;;;5019002;28;20077;-64
2022/08/27 12:52:50;;;;;;;4.28;0.82;;;21.00;99.90;;;;;;5036918;28;20049;-64
2022/08/27 12:55:33;;;;;;;8.93;1.27;;;21.10;99.90;;;;;;5018169;28;20434;-64
2022/08/27 12:58:21;;;;;;;3.60;0.60;;;21.10;99.90;;;;;;5016516;28;20215;-64
2022/08/27 13:01:02;;;;;;;4.22;0.68;;;21.20;99.90;;;;;;5028523;28;20041;-64
2022/08/27 13:03:36;;;;;;;7.10;0.80;;;21.20;99.90;;;;;;5015790;28;20060;-65
2022/08/27 13:06:14;;;;;;;6.68;0.70;;;21.20;99.90;;;;;;5016579;28;20045;-64
2022/08/27 13:08:40;;;;;;;3.55;0.70;;;21.30;99.90;;;;;;5016934;28;20037;-64
2022/08/27 13:11:27;;;;;;;5.45;0.65;;;21.10;99.90;;;;;;5016452;28;20575;-64